YON weather

Yongphulla Airport
Tashigang, Trashigang, Bhutan

Public forecast

Using degrees Celsius for public forecast. Weather courtesy of forecast.io.

Closest aviation weather report (METAR) to Yongphulla Airport

Closest report is Lokpriya Gopinath Bordoloi International Airport, 69.2 nm (128.1 km) S. Retrieved 2020/08/06 10:30 UTC (2 minutes ago):

VEGT 061030Z 18004KT 3500 BR SCT018 BKN100 31/31 Q1000 NOSIG

Closest aviation forecast (TAF) to Yongphulla Airport

Forecast is more than 12 hours old.

Closest forecast is Lokpriya Gopinath Bordoloi International Airport, 69.2 nm (128.1 km) S. Retrieved 2016/03/24 00:45 UTC (4 years ago):

TAF VEGT 242300Z 2500/2606 00000KT 2000 BR FEW020 BECMG 2503/2506 05008KT 4000 HZ BECMG 2506/2509 5000 HZ BECMG 2512/2514 00000KT 4000 HZ FEW020 SCT100 BECMG 2515/2518 2500 HZ BECMG 2603/2606 05008KT 4000 HZ FEW020=